This is the latest recevied weather packets stored in our database for station/object HP1PAR-14. If no packets are shown the sender has not sent any weather packets the latest 10 day(s).
| Time | Temp. | Humidity | Pressure | Rain* | Wind** | Luminosity | Snow |
|---|---|---|---|---|---|---|---|
| 1787795792 | 21.11° C | 98% | 1009.7 hPa | 0 mm | - | - | - |
| 1787793992 | 21.11° C | 98% | 1009.2 hPa | 0 mm | - | - | - |
| 1787792191 | 21.11° C | 98% | 1009.1 hPa | 0 mm | - | - | - |
| 1787790391 | 21.11° C | 99% | 1009.2 hPa | 0 mm | - | - | - |
| 1787788590 | 21.11° C | 96% | 1009.2 hPa | 0 mm | - | - | - |
| 1787786789 | 21.67° C | 93% | 1008.9 hPa | 0 mm | - | - | - |
| 1787784989 | 22.22° C | 91% | 1008.7 hPa | 0 mm | - | - | - |
| 1787783188 | 22.22° C | 90% | 1008.6 hPa | 0 mm | - | - | - |
| 1787781388 | 22.78° C | 87% | 1008.3 hPa | 0 mm | - | - | - |
| 1787779587 | 23.89° C | 83% | 1007.9 hPa | 0 mm | - | - | - |
| 1787777787 | 23.89° C | 82% | 1007.7 hPa | 0 mm | - | - | - |
| 1787775986 | 23.89° C | 83% | 1007.8 hPa | 0 mm | - | - | - |
| 1787774186 | 23.33° C | 86% | 1008.1 hPa | 0 mm | - | - | - |
| 1787772385 | 22.78° C | 90% | 1008.8 hPa | 0 mm | - | - | - |
| 1787770585 | 22.78° C | 91% | 1009.3 hPa | 0 mm | - | - | - |
| 1787770272 | 22.78° C | 91% | 1009.3 hPa | 0 mm | - | - | - |
| 1787768702 | 23.89° C | 83% | 1009.7 hPa | 0 mm | - | - | - |
| 1787766901 | 23.89° C | 84% | 1010.1 hPa | 0 mm | - | - | - |
| 1787765101 | 23.33° C | 84% | 1010.6 hPa | 0 mm | - | - | - |
| 1787763300 | 23.33° C | 82% | 1011 hPa | 0 mm | - | - | - |
| 1787763118 | 23.33° C | 82% | 1011 hPa | 0 mm | - | - | - |
| 1787763009 | 23.33° C | 82% | 1011 hPa | 0 mm | - | - | - |
| 1787762821 | 23.33° C | 82% | 1011 hPa | 0 mm | - | - | - |
| 1787762628 | 23.89° C | 80% | 1011.1 hPa | 0 mm | - | - | - |
| 1787762286 | 23.89° C | 80% | 1011.1 hPa | 0 mm | - | - | - |
* Rain latest hour (hover to see other rain measurements)
** Current wind speed in m/s (hover to see current wind gust speed)